Richelieu/Messier Airport

CRM3 · Quebec, 加拿大

罗盘
风向 的
风: 2 kt, 1 beaufort

添加一条跑道以查看侧风和逆风信息。

添置 跑道
0 6.000 12.000 18.000 24.000 30.000
FEW 16.000 ft
SCT 24.000 ft
SPECI CYHU 020300Z AUTO VRB02KT 9SM FEW160 SCT240 M02/M08 A3033 RMK SLP275

METAR Richelieu/Messier Airport - CRM3

Richelieu/Messier Airport是,加拿大中的小机场。 视场标高为118 ft。 该领域的国际民航组织标志是CRM3.

这份报告是针对2022年12月1日 22:00, 当地时间在Montréal / Saint-Hubert Airport进行的。

机场观察

可变方向的风很小或没有风。

可见度为9 mi。

有几云在16.000 ft的高度 和 疏云,零星散落的云朵在24.000 ft的高度。 没有观察到天花板。

温度为-2 °C,阵风为-5 °C。 露点为-8 °C,相对湿度为64%。 海平面上的气压为30,33 inHg (QNH)。

白天

今天,太阳从07:13升起,在16:11降落。 这适用于Richelieu/Messier Airport,世界夏令时可能有所不同。 当地时间与世界标准时间之间的时差为-5 小时。 当前,没有夏令时有效。

公司介绍

我们没有关于这个机场的公司信息。

体会

到Vliegles.nl去找飞行课程,跳伞和其他飞行体验。 浏览页面,了解Richelieu/Messier Airport附近所有可用的活动。 你也可以使用搜索功能来寻找你所在地附近的特定飞行课程、跳伞或其他飞行体验。

乌云

16.000 ft FEW 几云
24.000 ft SCT 疏云,零星散落的云朵

温度 & 天气

温度 -2 °C
露点 -8 °C
相对湿度 64%
风寒 -5 °C
Kp-index 3 (0-9)

评论

SLP275海平面压力为30,34 inHg (30,34 inHg)

白天

日出
07:14 (8:07)
中午
11:43
日落
16:11

小工具

你想在你的网站上有一个关于Richelieu/Messier Airport的当前航空天气(METAR)的小部件吗?

显示HTML代码

我们和第三方通过cookies跟踪您在我们网站上的互联网行为。如果你继续,我们认为你同意我们的饼干政策